createdAt,value
2023-02-19T00:00:31.323Z,0
2023-02-19T00:01:24.300Z,0
2023-02-19T00:02:25.702Z,0
2023-02-19T00:03:45.634Z,0
2023-02-19T00:04:20.620Z,0
2023-02-19T00:05:39.422Z,0
2023-02-19T00:06:43.334Z,0
2023-02-19T00:07:40.990Z,0
2023-02-19T00:08:36.153Z,0
2023-02-19T00:09:29.163Z,0
2023-02-19T00:10:21.575Z,0
2023-02-19T00:11:34.927Z,0
2023-02-19T00:12:21.356Z,0
2023-02-19T00:13:45.986Z,0
2023-02-19T00:14:37.985Z,0
2023-02-19T00:15:29.245Z,0
2023-02-19T00:16:24.144Z,0
2023-02-19T00:17:24.623Z,0
2023-02-19T00:18:36.047Z,0
2023-02-19T00:19:22.933Z,0
2023-02-19T00:20:49.485Z,0
2023-02-19T00:21:24.230Z,0
2023-02-19T00:22:37.332Z,0
2023-02-19T00:23:28.336Z,0
2023-02-19T00:24:20.466Z,0
2023-02-19T00:25:21.449Z,0
2023-02-19T00:26:26.021Z,0
2023-02-19T00:27:27.470Z,0
2023-02-19T00:28:41.012Z,0
2023-02-19T00:29:35.883Z,0
2023-02-19T00:30:23.668Z,0
2023-02-19T00:31:24.776Z,0
2023-02-19T00:32:26.802Z,0
2023-02-19T00:33:31.690Z,0
2023-02-19T00:34:46.489Z,0
2023-02-19T00:35:51.421Z,0
2023-02-19T00:36:38.218Z,0
2023-02-19T00:37:23.950Z,0
2023-02-19T00:38:25.556Z,0
2023-02-19T00:39:20.734Z,0
2023-02-19T00:40:23.163Z,0
2023-02-19T00:42:00.960Z,0
2023-02-19T00:42:54.901Z,0
2023-02-19T00:43:42.286Z,0
2023-02-19T00:44:29.837Z,0
2023-02-19T00:45:31.721Z,0
2023-02-19T00:46:24.559Z,0
2023-02-19T00:47:27.491Z,0
2023-02-19T00:48:22.566Z,0
2023-02-19T00:49:21.344Z,0
2023-02-19T00:50:35.387Z,0
2023-02-19T00:51:31.272Z,0
2023-02-19T00:52:35.115Z,0
2023-02-19T00:53:28.868Z,0
2023-02-19T00:54:21.665Z,0
2023-02-19T00:55:26.017Z,0
2023-02-19T00:56:42.076Z,0
2023-02-19T00:57:48.547Z,0
2023-02-19T00:58:33.738Z,0
2023-02-19T00:59:19.850Z,0
2023-02-19T01:00:33.314Z,0
2023-02-19T01:01:27.644Z,0
2023-02-19T01:02:28.803Z,0
2023-02-19T01:03:21.737Z,0
2023-02-19T01:04:50.837Z,0
2023-02-19T01:05:37.299Z,0
2023-02-19T01:06:24.936Z,0
2023-02-19T01:07:38.172Z,0
2023-02-19T01:08:31.093Z,0
2023-02-19T01:09:23.952Z,0
2023-02-19T01:10:25.719Z,0
2023-02-19T01:11:53.823Z,0
2023-02-19T01:12:29.980Z,0
2023-02-19T01:13:26.669Z,0
2023-02-19T01:14:40.802Z,0
2023-02-19T01:15:34.496Z,0
2023-02-19T01:16:26.568Z,0
2023-02-19T01:17:22.468Z,0
2023-02-19T01:18:22.575Z,0
2023-02-19T01:19:43.263Z,0
2023-02-19T01:20:30.761Z,0
2023-02-19T01:21:46.096Z,0
2023-02-19T01:22:39.220Z,0
2023-02-19T01:23:25.969Z,0
2023-02-19T01:24:26.519Z,0
2023-02-19T01:25:26.896Z,0
2023-02-19T01:26:20.427Z,0
2023-02-19T01:27:34.290Z,0
2023-02-19T01:28:49.562Z,0
2023-02-19T01:29:31.857Z,0
2023-02-19T01:30:36.459Z,0
2023-02-19T01:31:29.572Z,0
2023-02-19T01:32:20.792Z,0
2023-02-19T01:33:24.728Z,0
2023-02-19T01:34:23.158Z,0
2023-02-19T01:35:22.103Z,0
2023-02-19T01:36:49.124Z,0
2023-02-19T01:37:39.969Z,0
2023-02-19T01:38:32.901Z,0
2023-02-19T01:40:28.759Z,0
2023-02-19T01:41:40.664Z,0
2023-02-19T01:42:25.183Z,0
2023-02-19T01:43:50.536Z,0
2023-02-19T01:44:43.476Z,0
2023-02-19T01:45:35.325Z,0
2023-02-19T01:46:21.789Z,0
2023-02-19T01:47:21.354Z,0
2023-02-19T01:48:27.936Z,0
2023-02-19T01:49:29.292Z,0
2023-02-19T01:50:55.797Z,0
2023-02-19T01:51:23.557Z,0
2023-02-19T01:52:41.025Z,0
2023-02-19T01:53:25.553Z,0
2023-02-19T01:54:25.412Z,0
2023-02-19T01:55:32.443Z,0
2023-02-19T01:56:22.926Z,0
2023-02-19T01:57:29.707Z,0
2023-02-19T01:58:43.547Z,0
2023-02-19T01:59:40.473Z,0
2023-02-19T02:00:28.913Z,0
2023-02-19T02:01:33.790Z,0
2023-02-19T02:02:32.283Z,0
2023-02-19T02:21:34.853Z,0
2023-02-19T02:22:23.091Z,0
2023-02-19T02:23:36.021Z,0
2023-02-19T02:24:27.264Z,0
2023-02-19T02:25:21.949Z,0
2023-02-19T02:26:26.357Z,0
2023-02-19T02:27:55.676Z,0
2023-02-19T02:28:39.967Z,0
2023-02-19T02:29:27.498Z,0
2023-02-19T02:30:19.659Z,0
2023-02-19T02:31:32.606Z,0
2023-02-19T02:32:25.437Z,0
2023-02-19T02:33:21.521Z,0
2023-02-19T02:34:23.328Z,0
2023-02-19T02:35:42.286Z,0
2023-02-19T02:36:26.871Z,0
2023-02-19T02:37:39.052Z,0
2023-02-19T02:38:36.981Z,0
2023-02-19T02:39:30.010Z,0
2023-02-19T02:40:22.961Z,0
2023-02-19T02:41:27.606Z,0
2023-02-19T02:42:20.421Z,0
2023-02-19T02:43:32.725Z,0
2023-02-19T02:44:48.757Z,0
2023-02-19T02:45:41.586Z,0
2023-02-19T02:46:34.555Z,0
2023-02-19T02:47:24.256Z,0
2023-02-19T02:48:34.760Z,0
2023-02-19T02:49:24.568Z,0
2023-02-19T02:50:34.014Z,0
2023-02-19T02:51:21.520Z,0
2023-02-19T02:52:45.232Z,0
2023-02-19T02:53:28.984Z,0
2023-02-19T02:54:30.784Z,0
2023-02-19T02:55:24.167Z,0
2023-02-19T02:56:30.778Z,0
2023-02-19T02:57:22.272Z,0
2023-02-19T02:58:24.305Z,0
2023-02-19T02:59:48.753Z,0
2023-02-19T03:00:41.677Z,0
2023-02-19T03:01:34.796Z,0
2023-02-19T03:02:26.475Z,0
2023-02-19T03:03:33.292Z,0
2023-02-19T03:04:27.539Z,0
2023-02-19T03:05:27.165Z,0
2023-02-19T03:06:53.317Z,0
2023-02-19T03:07:46.521Z,0
2023-02-19T03:08:40.235Z,0
2023-02-19T03:09:23.662Z,0
2023-02-19T03:10:23.476Z,0
2023-02-19T03:11:32.167Z,0
2023-02-19T03:12:23.434Z,0
2023-02-19T03:13:56.911Z,0
2023-02-19T03:14:52.972Z,0
2023-02-19T03:15:20.633Z,0
2023-02-19T03:16:26.913Z,0
2023-02-19T03:17:27.525Z,0
2023-02-19T03:18:21.681Z,0
2023-02-19T03:19:27.656Z,0
2023-02-19T03:20:20.671Z,0
2023-02-19T03:21:25.617Z,0
2023-02-19T03:22:41.834Z,0
2023-02-19T03:23:29.413Z,0
2023-02-19T03:24:31.646Z,0
2023-02-19T03:25:26.400Z,0
2023-02-19T03:26:31.751Z,0
2023-02-19T03:27:24.746Z,0
2023-02-19T03:28:45.297Z,0
2023-02-19T03:29:46.086Z,0
2023-02-19T03:30:32.087Z,0
2023-02-19T03:31:35.545Z,0
2023-02-19T03:32:24.580Z,0
2023-02-19T03:33:23.407Z,0
2023-02-19T03:34:26.926Z,0
2023-02-19T03:35:23.721Z,0
2023-02-19T03:36:48.684Z,0
2023-02-19T03:37:35.584Z,0
2023-02-19T03:38:22.661Z,0
2023-02-19T03:39:34.280Z,0
2023-02-19T03:40:26.417Z,0
2023-02-19T03:41:31.256Z,0
2023-02-19T03:42:26.522Z,0
2023-02-19T03:43:19.389Z,0
2023-02-19T03:44:34.112Z,0
2023-02-19T03:45:24.168Z,0
2023-02-19T03:46:38.104Z,0
2023-02-19T03:47:31.372Z,0
2023-02-19T03:48:22.398Z,0
2023-02-19T03:49:24.760Z,0
2023-02-19T03:50:23.728Z,0
2023-02-19T03:51:51.749Z,0
2023-02-19T03:52:28.971Z,0
2023-02-19T03:53:42.529Z,0
2023-02-19T03:54:33.657Z,0
2023-02-19T03:55:27.549Z,0
2023-02-19T03:56:34.760Z,0
2023-02-19T03:57:27.886Z,0
2023-02-19T03:58:20.663Z,0
2023-02-19T03:59:29.820Z,0
2023-02-19T04:00:24.056Z,0
2023-02-19T04:01:43.404Z,0
2023-02-19T04:02:32.134Z,0
2023-02-19T04:03:26.573Z,0
2023-02-19T04:04:35.221Z,0
2023-02-19T04:05:30.441Z,0
2023-02-19T04:06:28.996Z,0
2023-02-19T04:07:42.958Z,0
2023-02-19T04:08:43.305Z,0
2023-02-19T04:09:39.822Z,0
2023-02-19T04:10:29.871Z,0
2023-02-19T04:11:23.892Z,0
2023-02-19T04:12:35.612Z,0
2023-02-19T04:13:26.377Z,0
2023-02-19T04:14:23.510Z,0
2023-02-19T04:15:51.846Z,0
2023-02-19T04:16:41.559Z,0
2023-02-19T04:17:27.113Z,0
2023-02-19T04:18:27.354Z,0
2023-02-19T04:19:33.949Z,0
2023-02-19T04:20:28.554Z,0
2023-02-19T04:21:23.081Z,0
2023-02-19T04:23:02.800Z,0
2023-02-19T04:23:53.764Z,0
2023-02-19T04:24:43.268Z,0
2023-02-19T04:25:23.944Z,0
2023-02-19T04:26:21.862Z,0
2023-02-19T04:27:33.291Z,0
2023-02-19T04:28:22.064Z,0
2023-02-19T04:29:38.828Z,0
2023-02-19T04:30:49.277Z,0
2023-02-19T04:31:44.235Z,0
2023-02-19T04:32:30.507Z,0
2023-02-19T04:33:25.985Z,0
2023-02-19T04:34:30.281Z,0
2023-02-19T04:35:35.327Z,0
2023-02-19T04:36:24.971Z,0
2023-02-19T04:37:58.604Z,0
2023-02-19T04:38:43.320Z,0
2023-02-19T04:39:31.698Z,0
2023-02-19T04:40:38.867Z,0
2023-02-19T04:41:26.003Z,0
2023-02-19T04:42:40.544Z,0
2023-02-19T04:43:27.294Z,0
2023-02-19T04:45:00.017Z,0
2023-02-19T04:45:24.587Z,0
2023-02-19T04:46:33.639Z,0
2023-02-19T04:47:35.788Z,0
2023-02-19T04:48:28.091Z,0
2023-02-19T04:49:39.271Z,0
2023-02-19T04:50:25.708Z,0
2023-02-19T04:51:22.563Z,0
2023-02-19T04:52:41.776Z,0
2023-02-19T04:53:34.778Z,0
2023-02-19T04:54:22.069Z,0
2023-02-19T04:55:32.403Z,0
2023-02-19T04:56:20.627Z,0
2023-02-19T04:57:28.518Z,0
2023-02-19T04:58:26.860Z,0
2023-02-19T04:59:21.324Z,0
2023-02-19T05:00:38.029Z,0
2023-02-19T05:01:23.402Z,0
2023-02-19T05:02:26.215Z,0
2023-02-19T05:03:29.318Z,0
2023-02-19T05:04:22.143Z,0
2023-02-19T05:05:30.794Z,0
2023-02-19T05:06:24.179Z,0
2023-02-19T05:07:40.960Z,0
2023-02-19T05:08:25.978Z,0
2023-02-19T05:09:39.156Z,0
2023-02-19T05:10:32.789Z,0
2023-02-19T05:11:26.775Z,0
2023-02-19T05:12:21.992Z,0
2023-02-19T05:13:21.664Z,0
2023-02-19T05:14:21.998Z,0
2023-02-19T05:15:28.921Z,0
2023-02-19T05:16:43.546Z,0
2023-02-19T05:17:36.472Z,0
2023-02-19T05:18:28.295Z,0
2023-02-19T05:19:28.307Z,0
2023-02-19T05:20:39.303Z,0
2023-02-19T05:21:25.572Z,0
2023-02-19T05:22:32.061Z,0
2023-02-19T05:23:48.114Z,0
2023-02-19T05:24:39.519Z,0
2023-02-19T05:25:34.003Z,0
2023-02-19T05:26:28.508Z,0
2023-02-19T05:27:37.473Z,0
2023-02-19T05:28:30.918Z,0
2023-02-19T05:29:22.711Z,0
2023-02-19T05:30:23.482Z,0
2023-02-19T05:31:37.892Z,0
2023-02-19T05:32:37.800Z,0
2023-02-19T05:33:30.124Z,0
2023-02-19T05:34:22.500Z,0
2023-02-19T05:35:33.838Z,0
2023-02-19T05:36:29.482Z,0
2023-02-19T05:37:19.694Z,0
2023-02-19T05:38:47.229Z,0
2023-02-19T05:39:41.911Z,0
2023-02-19T05:40:34.552Z,0
2023-02-19T05:41:22.335Z,0
2023-02-19T05:42:33.281Z,0
2023-02-19T05:43:31.093Z,0
2023-02-19T05:44:26.553Z,0
2023-02-19T05:45:53.161Z,0
2023-02-19T05:46:46.059Z,0
2023-02-19T05:47:26.979Z,0
2023-02-19T05:48:22.937Z,0
2023-02-19T05:49:23.148Z,0
2023-02-19T05:50:35.420Z,0
2023-02-19T05:51:31.089Z,0
2023-02-19T05:52:22.264Z,0
2023-02-19T05:53:32.691Z,0
2023-02-19T05:54:44.585Z,0
2023-02-19T05:55:27.877Z,0
2023-02-19T05:56:28.473Z,0
2023-02-19T05:57:20.281Z,0
2023-02-19T05:58:22.077Z,0
2023-02-19T05:59:21.311Z,0
2023-02-19T06:00:50.791Z,0
2023-02-19T06:01:43.778Z,0
2023-02-19T06:02:30.286Z,0
2023-02-19T06:03:32.663Z,0
2023-02-19T06:04:26.028Z,0
2023-02-19T06:05:38.014Z,0
2023-02-19T06:06:23.955Z,0
2023-02-19T06:07:22.608Z,0
2023-02-19T06:08:46.837Z,0
2023-02-19T06:09:32.197Z,-0
2023-02-19T06:10:37.261Z,0
2023-02-19T06:11:28.546Z,0
2023-02-19T06:12:22.709Z,0
2023-02-19T06:13:35.647Z,0
2023-02-19T06:14:26.711Z,0
2023-02-19T06:15:20.306Z,0
2023-02-19T06:16:38.292Z,0
2023-02-19T06:17:23.280Z,0
2023-02-19T06:18:33.323Z,0
2023-02-19T06:19:26.052Z,0
2023-02-19T06:20:30.084Z,0
2023-02-19T06:21:31.474Z,0
2023-02-19T06:22:24.475Z,0
2023-02-19T06:23:38.481Z,0
2023-02-19T06:24:27.013Z,0
2023-02-19T06:25:38.743Z,0
2023-02-19T06:26:23.449Z,0
2023-02-19T06:27:23.828Z,0
2023-02-19T06:28:21.822Z,0
2023-02-19T06:29:29.292Z,0
2023-02-19T06:30:21.587Z,0
2023-02-19T06:31:28.385Z,0
2023-02-19T06:32:27.878Z,0
2023-02-19T06:33:34.497Z,0
2023-02-19T06:34:28.076Z,0
2023-02-19T06:35:24.492Z,0
2023-02-19T06:36:32.635Z,0
2023-02-19T06:37:26.298Z,0
2023-02-19T06:38:31.192Z,0
2023-02-19T06:39:45.493Z,0
2023-02-19T06:40:39.074Z,0
2023-02-19T06:41:31.961Z,0
2023-02-19T06:42:28.202Z,0
2023-02-19T06:43:24.188Z,0
2023-02-19T06:44:29.803Z,0
2023-02-19T06:45:24.380Z,0
2023-02-19T06:46:21.032Z,0
2023-02-19T06:47:42.727Z,0
2023-02-19T06:48:34.469Z,0
2023-02-19T06:49:30.645Z,0
2023-02-19T06:50:20.958Z,0
2023-02-19T06:51:33.970Z,1
2023-02-19T06:52:29.655Z,1
2023-02-19T06:53:20.433Z,1
2023-02-19T06:54:20.126Z,1
2023-02-19T06:55:35.901Z,1
2023-02-19T06:56:34.066Z,1
2023-02-19T06:57:24.872Z,1
2023-02-19T06:58:40.592Z,1
2023-02-19T06:59:31.489Z,1
2023-02-19T07:00:27.146Z,1
2023-02-19T07:01:39.793Z,1
2023-02-19T07:02:44.467Z,1
2023-02-19T07:04:02.842Z,1
2023-02-19T07:04:22.077Z,1
2023-02-19T07:05:21.287Z,1
2023-02-19T07:06:31.008Z,1
2023-02-19T07:07:31.001Z,1
2023-02-19T07:08:23.758Z,1
2023-02-19T07:09:49.210Z,1
2023-02-19T07:10:42.114Z,1
2023-02-19T07:11:26.283Z,1
2023-02-19T07:12:25.343Z,1
2023-02-19T07:13:41.293Z,1
2023-02-19T07:14:34.070Z,1
2023-02-19T07:15:19.942Z,1
2023-02-19T07:16:52.144Z,1
2023-02-19T07:17:29.365Z,1
2023-02-19T07:18:28.194Z,1
2023-02-19T07:19:29.885Z,1
2023-02-19T07:20:23.060Z,1
2023-02-19T07:21:37.130Z,1
2023-02-19T07:22:23.106Z,1
2023-02-19T07:23:23.399Z,1
2023-02-19T07:24:48.673Z,1
2023-02-19T07:25:33.341Z,1
2023-02-19T07:26:34.627Z,1
2023-02-19T07:27:26.097Z,1
2023-02-19T07:28:24.627Z,1
2023-02-19T07:29:26.226Z,1
2023-02-19T07:30:27.604Z,1
2023-02-19T07:31:22.406Z,1
2023-02-19T07:32:35.833Z,1
2023-02-19T07:34:30.204Z,1
2023-02-19T07:35:24.996Z,1
2023-02-19T07:36:29.893Z,2
2023-02-19T07:37:34.336Z,2
2023-02-19T07:38:24.729Z,2
2023-02-19T07:39:22.861Z,2
2023-02-19T07:40:24.192Z,2
2023-02-19T07:41:35.692Z,2
2023-02-19T07:42:28.658Z,2
2023-02-19T07:43:20.374Z,2
2023-02-19T07:44:35.774Z,2
2023-02-19T07:45:29.048Z,2
2023-02-19T07:46:22.372Z,2
2023-02-19T07:47:27.206Z,1
2023-02-19T07:48:40.290Z,1
2023-02-19T07:49:33.590Z,1
2023-02-19T07:50:24.403Z,2
2023-02-19T07:51:24.154Z,2
2023-02-19T07:52:32.835Z,2
2023-02-19T07:53:27.075Z,2
2023-02-19T07:54:32.351Z,2
2023-02-19T07:55:42.135Z,2
2023-02-19T07:56:23.039Z,2
2023-02-19T07:57:30.710Z,3
2023-02-19T07:58:22.840Z,2
2023-02-19T07:59:37.104Z,2
2023-02-19T08:00:32.243Z,2
2023-02-19T08:01:23.551Z,2
2023-02-19T08:02:20.030Z,2
2023-02-19T08:03:40.033Z,2
2023-02-19T08:04:33.475Z,2
2023-02-19T08:05:26.415Z,3
2023-02-19T08:06:44.243Z,3
2023-02-19T08:07:21.367Z,3
2023-02-19T08:08:27.647Z,3
2023-02-19T08:09:24.450Z,3
2023-02-19T08:10:45.234Z,3
2023-02-19T08:11:38.191Z,3
2023-02-19T08:12:31.479Z,3
2023-02-19T08:13:23.009Z,3
2023-02-19T08:14:40.068Z,3
2023-02-19T08:15:32.924Z,3
2023-02-19T08:16:42.065Z,3
2023-02-19T08:17:49.657Z,3
2023-02-19T08:18:40.443Z,3
2023-02-19T08:19:31.023Z,3
2023-02-19T08:20:22.629Z,3
2023-02-19T08:21:44.861Z,3
2023-02-19T08:22:37.638Z,3
2023-02-19T08:23:29.592Z,3
2023-02-19T08:24:22.304Z,3
2023-02-19T08:25:36.532Z,3
2023-02-19T08:26:37.665Z,3
2023-02-19T08:27:25.397Z,3
2023-02-19T08:28:23.802Z,4
2023-02-19T08:29:39.961Z,4
2023-02-19T08:30:28.112Z,4
2023-02-19T08:31:27.352Z,4
2023-02-19T08:32:48.192Z,3
2023-02-19T08:33:41.196Z,3
2023-02-19T08:34:27.334Z,4
2023-02-19T08:35:27.287Z,4
2023-02-19T08:36:20.274Z,4
2023-02-19T08:37:38.461Z,4
2023-02-19T08:38:23.924Z,5
2023-02-19T08:39:23.657Z,5
2023-02-19T08:40:46.805Z,5
2023-02-19T08:41:25.856Z,5
2023-02-19T08:42:32.117Z,4
2023-02-19T08:43:24.972Z,4
2023-02-19T08:44:39.721Z,4
2023-02-19T08:45:25.336Z,4
2023-02-19T08:46:27.667Z,4
2023-02-19T08:47:20.624Z,4
2023-02-19T08:48:34.549Z,4
2023-02-19T08:49:20.224Z,4
2023-02-19T08:50:56.443Z,4
2023-02-19T08:51:21.242Z,4
2023-02-19T08:52:21.051Z,4
2023-02-19T08:53:34.000Z,4
2023-02-19T08:54:24.943Z,4
2023-02-19T08:55:37.242Z,5
2023-02-19T08:56:39.576Z,5
2023-02-19T08:57:32.017Z,5
2023-02-19T08:58:25.996Z,5
2023-02-19T08:59:30.901Z,5
2023-02-19T09:00:36.075Z,5
2023-02-19T09:01:30.055Z,5
2023-02-19T09:02:41.208Z,6
2023-02-19T09:03:26.670Z,6
2023-02-19T09:04:31.484Z,6
2023-02-19T09:05:29.293Z,6
2023-02-19T09:06:23.824Z,6
2023-02-19T09:07:21.681Z,6
2023-02-19T09:08:56.748Z,7
2023-02-19T09:09:22.836Z,7
2023-02-19T09:10:30.605Z,7
2023-02-19T09:11:40.216Z,6
2023-02-19T09:12:34.536Z,7
2023-02-19T09:13:27.544Z,7
2023-02-19T09:14:25.047Z,7
2023-02-19T09:15:28.334Z,7
2023-02-19T09:16:32.805Z,7
2023-02-19T09:17:26.016Z,7
2023-02-19T09:18:47.055Z,7
2023-02-19T09:19:38.819Z,7
2023-02-19T09:20:31.935Z,7
2023-02-19T09:21:24.343Z,7
2023-02-19T09:22:41.949Z,7
2023-02-19T09:23:36.234Z,8
2023-02-19T09:24:29.173Z,8
2023-02-19T09:25:23.043Z,9
2023-02-19T09:26:27.865Z,9
2023-02-19T09:27:35.043Z,9
2023-02-19T09:28:31.125Z,9
2023-02-19T09:29:22.938Z,9
2023-02-19T09:30:41.794Z,9
2023-02-19T09:32:01.393Z,9
2023-02-19T09:32:25.363Z,9
2023-02-19T09:33:45.061Z,9
2023-02-19T09:34:21.836Z,9
2023-02-19T09:35:34.811Z,8
2023-02-19T09:36:21.184Z,8
2023-02-19T09:37:38.496Z,8
2023-02-19T09:38:36.105Z,7
2023-02-19T09:39:30.656Z,7
2023-02-19T09:40:23.363Z,7
2023-02-19T09:41:36.574Z,8
2023-02-19T09:42:29.927Z,8
2023-02-19T09:43:24.572Z,9
2023-02-19T09:44:22.956Z,10
2023-02-19T09:45:40.722Z,11
2023-02-19T09:46:35.504Z,11
2023-02-19T09:47:26.668Z,11
2023-02-19T09:48:19.540Z,11
2023-02-19T09:49:32.004Z,11
2023-02-19T09:50:27.049Z,11
2023-02-19T09:51:25.201Z,11
2023-02-19T09:52:33.495Z,11
2023-02-19T09:53:34.815Z,11
2023-02-19T09:54:21.419Z,12
2023-02-19T09:55:20.046Z,12
2023-02-19T09:56:31.497Z,13
2023-02-19T09:57:26.686Z,13
2023-02-19T09:58:22.521Z,14
2023-02-19T09:59:23.077Z,14
2023-02-19T10:00:30.236Z,14
2023-02-19T10:01:24.504Z,13
2023-02-19T10:02:21.205Z,13
2023-02-19T10:03:20.985Z,12
2023-02-19T10:04:26.287Z,12
2023-02-19T10:05:23.600Z,11
2023-02-19T10:06:26.495Z,10
2023-02-19T10:07:29.062Z,10
2023-02-19T10:08:28.220Z,10
2023-02-19T10:09:20.654Z,10
2023-02-19T10:10:24.971Z,9
2023-02-19T10:11:26.380Z,9
2023-02-19T10:12:22.390Z,8
2023-02-19T10:13:32.103Z,8
2023-02-19T10:14:24.350Z,8
2023-02-19T10:15:25.079Z,8
2023-02-19T10:16:19.896Z,8
2023-02-19T10:17:33.035Z,8
2023-02-19T10:18:22.727Z,9
2023-02-19T10:19:22.347Z,9
2023-02-19T10:20:36.694Z,8
2023-02-19T10:21:28.130Z,8
2023-02-19T10:22:22.264Z,8
2023-02-19T10:23:38.046Z,8
2023-02-19T10:24:30.118Z,8
2023-02-19T10:25:27.982Z,8
2023-02-19T10:26:22.295Z,8
2023-02-19T10:27:32.120Z,8
2023-02-19T10:28:31.362Z,9
2023-02-19T10:29:25.025Z,8
2023-02-19T10:30:24.106Z,8
2023-02-19T10:31:30.356Z,8
2023-02-19T10:32:26.244Z,8
2023-02-19T10:33:24.027Z,8
2023-02-19T10:34:34.965Z,8
2023-02-19T10:35:28.158Z,8
2023-02-19T10:36:24.230Z,8
2023-02-19T10:37:21.430Z,8
2023-02-19T10:38:29.970Z,8
2023-02-19T10:39:26.767Z,9
2023-02-19T10:40:23.303Z,9
2023-02-19T10:41:31.920Z,9
2023-02-19T10:42:29.820Z,9
2023-02-19T10:43:24.196Z,9
2023-02-19T10:44:21.843Z,9
2023-02-19T10:45:31.890Z,9
2023-02-19T10:46:26.070Z,9
2023-02-19T10:47:23.813Z,9
2023-02-19T10:48:25.733Z,9
2023-02-19T10:49:28.001Z,9
2023-02-19T10:50:25.853Z,9
2023-02-19T10:51:20.264Z,9
2023-02-19T10:52:23.776Z,9
2023-02-19T10:53:26.011Z,9
2023-02-19T10:54:23.875Z,9
2023-02-19T10:55:29.772Z,9
2023-02-19T10:56:23.843Z,9
2023-02-19T10:57:40.417Z,9
2023-02-19T10:58:21.769Z,9
2023-02-19T10:59:22.593Z,10
2023-02-19T11:00:26.166Z,10
2023-02-19T11:01:23.755Z,10
2023-02-19T11:02:34.115Z,10
2023-02-19T11:03:28.353Z,10
2023-02-19T11:04:20.562Z,10
2023-02-19T11:05:20.156Z,9
2023-02-19T11:06:25.053Z,9
2023-02-19T11:07:23.744Z,9
2023-02-19T11:08:22.236Z,9
2023-02-19T11:09:33.283Z,9
2023-02-19T11:10:21.877Z,10
2023-02-19T11:11:39.718Z,10
2023-02-19T11:12:21.029Z,10
2023-02-19T11:13:32.641Z,10
2023-02-19T11:14:28.206Z,10
2023-02-19T11:15:22.818Z,10
2023-02-19T11:16:33.703Z,9
2023-02-19T11:17:23.052Z,9
2023-02-19T11:18:22.415Z,9
2023-02-19T11:19:22.057Z,9
2023-02-19T11:20:31.260Z,9
2023-02-19T11:21:26.904Z,10
2023-02-19T11:22:24.212Z,10
2023-02-19T11:23:33.714Z,10
2023-02-19T11:24:28.265Z,10
2023-02-19T11:25:24.341Z,10
2023-02-19T11:26:26.795Z,10
2023-02-19T11:27:30.160Z,10
2023-02-19T11:28:26.225Z,9
2023-02-19T11:29:23.800Z,9
2023-02-19T11:30:21.177Z,9
2023-02-19T11:31:29.530Z,9
2023-02-19T11:32:24.498Z,8
2023-02-19T11:33:20.405Z,8
2023-02-19T11:34:22.721Z,8
2023-02-19T11:35:26.339Z,8
2023-02-19T11:36:22.265Z,8
2023-02-19T11:37:25.152Z,8
2023-02-19T11:38:28.166Z,8
2023-02-19T11:39:42.804Z,8
2023-02-19T11:40:20.840Z,8
2023-02-19T11:41:31.887Z,8
2023-02-19T11:42:20.577Z,8
2023-02-19T11:43:22.206Z,8
2023-02-19T11:44:33.841Z,8
2023-02-19T11:45:22.354Z,9
2023-02-19T11:46:25.504Z,9
2023-02-19T11:47:20.321Z,9
2023-02-19T11:48:31.301Z,10
2023-02-19T11:49:27.848Z,10
2023-02-19T11:50:22.333Z,11
2023-02-19T11:51:33.135Z,11
2023-02-19T11:52:29.845Z,11
2023-02-19T11:53:25.367Z,10
2023-02-19T11:54:21.808Z,10
2023-02-19T11:55:31.918Z,10
2023-02-19T11:56:28.658Z,11
2023-02-19T11:57:24.006Z,12
2023-02-19T11:58:32.384Z,12
2023-02-19T11:59:30.107Z,12
2023-02-19T12:00:26.021Z,12
2023-02-19T12:01:20.149Z,12
2023-02-19T12:02:40.982Z,12
2023-02-19T12:03:22.668Z,12
2023-02-19T12:04:27.556Z,12
2023-02-19T12:05:32.521Z,12
2023-02-19T12:06:28.435Z,12
2023-02-19T12:07:28.998Z,12
2023-02-19T12:08:20.166Z,11
2023-02-19T12:09:26.764Z,12
2023-02-19T12:10:27.884Z,12
2023-02-19T12:11:23.200Z,12
2023-02-19T12:12:22.986Z,12
2023-02-19T12:13:29.041Z,12
2023-02-19T12:14:24.799Z,11
2023-02-19T12:15:24.296Z,11
2023-02-19T12:16:30.455Z,10
2023-02-19T12:17:28.114Z,9
2023-02-19T12:18:21.865Z,9
2023-02-19T12:19:27.081Z,8
2023-02-19T12:20:21.124Z,8
2023-02-19T12:21:26.783Z,8
2023-02-19T12:22:21.099Z,8
2023-02-19T12:23:23.147Z,7
2023-02-19T12:24:28.940Z,7
2023-02-19T12:25:22.453Z,7
2023-02-19T12:26:32.159Z,7
2023-02-19T12:27:24.561Z,7
2023-02-19T12:28:24.408Z,6
2023-02-19T12:29:20.068Z,6
2023-02-19T12:30:25.275Z,6
2023-02-19T12:31:21.093Z,6
2023-02-19T12:32:22.508Z,6
2023-02-19T12:33:23.190Z,6
2023-02-19T12:34:30.239Z,6
2023-02-19T12:35:24.312Z,6
2023-02-19T12:36:21.214Z,6
2023-02-19T12:37:29.168Z,6
2023-02-19T12:38:22.866Z,7
2023-02-19T12:39:22.386Z,7
2023-02-19T12:40:27.395Z,7
2023-02-19T12:41:28.370Z,7
2023-02-19T12:42:27.347Z,7
2023-02-19T12:43:34.087Z,7
2023-02-19T12:44:20.889Z,7
2023-02-19T12:45:28.127Z,6
2023-02-19T12:46:22.692Z,6
2023-02-19T12:47:28.439Z,6
2023-02-19T12:48:24.461Z,6
2023-02-19T12:49:24.450Z,5
2023-02-19T12:50:22.935Z,5
2023-02-19T12:51:23.535Z,5
2023-02-19T12:52:26.119Z,5
2023-02-19T12:53:23.937Z,5
2023-02-19T12:54:27.780Z,5
2023-02-19T12:55:29.554Z,5
2023-02-19T12:56:24.164Z,5
2023-02-19T12:57:21.687Z,5
2023-02-19T12:58:21.861Z,5
2023-02-19T12:59:19.852Z,5
2023-02-19T13:00:22.280Z,5
2023-02-19T13:01:19.950Z,5
2023-02-19T13:02:21.422Z,5
2023-02-19T13:03:25.706Z,4
2023-02-19T13:04:20.422Z,4
2023-02-19T13:05:24.715Z,4
2023-02-19T13:06:26.246Z,4
2023-02-19T13:07:22.157Z,4
2023-02-19T13:08:24.040Z,4
2023-02-19T13:09:24.379Z,4
2023-02-19T13:10:25.848Z,4
2023-02-19T13:11:20.225Z,4
2023-02-19T13:12:33.853Z,4
2023-02-19T13:13:23.939Z,4
2023-02-19T13:14:23.084Z,4
2023-02-19T13:15:29.841Z,4
2023-02-19T13:16:22.740Z,4
2023-02-19T13:17:25.316Z,4
2023-02-19T13:18:22.905Z,5
2023-02-19T13:19:37.799Z,5
2023-02-19T13:20:23.941Z,5
2023-02-19T13:21:22.549Z,5
2023-02-19T13:22:26.655Z,5
2023-02-19T13:23:24.912Z,5
2023-02-19T13:24:24.627Z,5
2023-02-19T13:25:20.065Z,5
2023-02-19T13:26:30.733Z,5
2023-02-19T13:27:26.445Z,5
2023-02-19T13:28:23.051Z,5
2023-02-19T13:29:33.066Z,5
2023-02-19T13:30:28.974Z,5
2023-02-19T13:31:24.705Z,5
2023-02-19T13:32:20.036Z,4
2023-02-19T13:33:23.466Z,4
2023-02-19T13:34:30.104Z,4
2023-02-19T13:35:22.831Z,4
2023-02-19T13:36:22.891Z,4
2023-02-19T13:37:28.390Z,4
2023-02-19T13:38:26.021Z,4
2023-02-19T13:39:20.758Z,4
2023-02-19T13:40:30.345Z,4
2023-02-19T13:41:26.596Z,4
2023-02-19T13:42:23.392Z,4
2023-02-19T13:43:26.873Z,4
2023-02-19T13:44:20.492Z,4
2023-02-19T13:45:26.561Z,4
2023-02-19T13:46:24.153Z,4
2023-02-19T13:47:46.135Z,4
2023-02-19T13:48:29.039Z,4
2023-02-19T13:49:23.103Z,4
2023-02-19T13:50:25.827Z,4
2023-02-19T13:51:24.324Z,5
2023-02-19T13:52:24.282Z,5
2023-02-19T13:53:20.327Z,5
2023-02-19T13:54:21.321Z,6
2023-02-19T13:55:41.519Z,6
2023-02-19T13:56:24.456Z,7
2023-02-19T13:57:33.425Z,7
2023-02-19T13:58:29.268Z,6
2023-02-19T13:59:24.461Z,6
2023-02-19T14:00:32.515Z,6
2023-02-19T14:01:25.182Z,5
2023-02-19T14:02:27.205Z,5
2023-02-19T14:03:24.237Z,5
2023-02-19T14:04:32.627Z,5
2023-02-19T14:05:30.995Z,6
2023-02-19T14:06:27.846Z,6
2023-02-19T14:07:22.810Z,6
2023-02-19T14:08:30.034Z,6
2023-02-19T14:09:20.953Z,6
2023-02-19T14:10:22.207Z,6
2023-02-19T14:11:43.417Z,6
2023-02-19T14:12:19.686Z,6
2023-02-19T14:13:25.339Z,6
2023-02-19T14:14:20.887Z,5
2023-02-19T14:15:32.648Z,5
2023-02-19T14:16:26.138Z,5
2023-02-19T14:17:22.244Z,5
2023-02-19T14:18:20.439Z,5
2023-02-19T14:19:40.527Z,5
2023-02-19T14:20:24.093Z,5
2023-02-19T14:21:22.183Z,5
2023-02-19T14:22:30.397Z,5
2023-02-19T14:23:29.928Z,5
2023-02-19T14:24:23.497Z,5
2023-02-19T14:25:24.137Z,6
2023-02-19T14:26:43.221Z,6
2023-02-19T14:27:25.227Z,5
2023-02-19T14:28:20.118Z,5
2023-02-19T14:29:22.055Z,5
2023-02-19T14:30:26.564Z,5
2023-02-19T14:31:22.822Z,6
2023-02-19T14:32:27.015Z,6
2023-02-19T14:33:28.537Z,7
2023-02-19T14:34:41.592Z,7
2023-02-19T14:35:21.518Z,8
2023-02-19T14:36:23.301Z,8
2023-02-19T14:37:26.448Z,7
2023-02-19T14:38:22.475Z,7
2023-02-19T14:39:23.289Z,7
2023-02-19T14:40:28.464Z,6
2023-02-19T14:41:26.490Z,6
2023-02-19T14:42:20.068Z,6
2023-02-19T14:43:25.872Z,6
2023-02-19T14:44:26.425Z,5
2023-02-19T14:45:22.945Z,5
2023-02-19T14:46:25.031Z,4
2023-02-19T14:47:19.962Z,4
2023-02-19T14:48:24.486Z,4
2023-02-19T14:49:21.247Z,4
2023-02-19T14:50:27.404Z,5
2023-02-19T14:51:27.847Z,5
2023-02-19T14:52:22.457Z,6
2023-02-19T14:53:33.036Z,6
2023-02-19T14:54:26.115Z,6
2023-02-19T14:55:24.404Z,6
2023-02-19T14:56:20.523Z,6
2023-02-19T14:57:22.038Z,5
2023-02-19T14:58:26.258Z,5
2023-02-19T14:59:25.061Z,5
2023-02-19T15:00:35.254Z,5
2023-02-19T15:01:28.323Z,4
2023-02-19T15:02:21.274Z,4
2023-02-19T15:03:27.178Z,4
2023-02-19T15:04:30.197Z,4